الصفحة الرئيسية
METAR-TAF:

METAR-TAF

مطار :

مطار هاربين الدولي

هاربين, جمهورية الصين الشعبية

دائرة عرض: 45-45N, خط طول: 126-46E, ارتفاع: 143 متر

مراقبة الطقس الحالي

تاريخ ووقت الإصدار 12ساعات و 26 دقيقة قبل الساعة 05:00UTC
ريح 4 عقدةمن اتجاهات متغيرة
درجة الحرارة 24°درجة مئوية
الرطوبة 74%
ضغط 997 hPa
الرؤية 10 كم أو أكثر
الغيوم لا تقل 1500 م ولا وجود لمزنة ركامية السحاب الأسود

METAR: ZYHB 210500Z VRB02MPS CAVOK 24/19 Q0997 RETSRA NOSIG

زمن: 01:26 (17:26 UTC)

توقعات

تاريخ ووقت الإصدار 14ساعات و 50 دقيقة قبل الساعة 02:36UTC
التوقعات صالحة من21 الساعة 06 UTC إلى 22 الساعة 06 UTC
ريح 8 عقدة من الشمال الغربي تتزايد حتى 19 عقدة
الرؤية: 6000 متر
غيوم متفرقة على ارتفاع 3300 قدم
مؤقت
من 21 الساعة 06 UTC إلى 21 الساعة 12 UTC
غيوم قليلة على ارتفاع 2600 قدم, مزنة ركامية.
غيوم مفككة على ارتفاع 3000 قدم
عاصفة رعدية, مطر خفيف

TAF: ZYHB 210236Z 2106/2206 32004G10MPS 6000 SCT033 TX26/2106Z TN16/2121Z TEMPO 2106/2112 -TSRA FEW026CB BKN030

أرصاد الطقس والتوقعات من أكثر من 4000 مطار (تقارير الطقس للمطار METAR والتنبؤ بالطقس بالمطارTAF).

المحطات المتاحة هي النقط الصفراء والحمراء على الخريطة.

حرك المؤشر فوق النقطة لمعرفة اسم المحطة.

ثم انقر لمعرفة أرصاد وتوقعات الطقس.

لتغيير الخارطة: اضغط على الأزرار الخضراء مع رمز الصليب الأسود للتكبير. على الزر الأخضر مع شرطة للتصغير، أو على الأسهم الخضراء للخرائط المجاورة.


METAR-TAF: